createdAt,value
2017-12-03T00:00:43.247Z,40.67
2017-12-03T00:06:47.553Z,39.40
2017-12-03T00:12:51.323Z,37.97
2017-12-03T00:18:54.953Z,33.20
2017-12-03T00:24:59.284Z,38.00
2017-12-03T00:31:02.831Z,37.03
2017-12-03T00:37:06.371Z,40.53
2017-12-03T00:43:09.965Z,31.70
2017-12-03T00:49:13.495Z,40.10
2017-12-03T00:55:17.031Z,37.33
2017-12-03T01:01:20.721Z,39.90
2017-12-03T01:07:24.434Z,43.43
2017-12-03T01:13:27.990Z,40.50
2017-12-03T01:19:32.338Z,41.50
2017-12-03T01:25:35.973Z,39.03
2017-12-03T01:31:39.818Z,41.50
2017-12-03T01:37:43.349Z,48.20
2017-12-03T01:43:47.641Z,34.53
2017-12-03T01:49:51.146Z,43.90
2017-12-03T01:55:55.176Z,36.83
2017-12-03T02:01:59.000Z,37.20
2017-12-03T02:08:03.275Z,38.67
2017-12-03T02:14:06.763Z,37.43
2017-12-03T02:20:10.298Z,37.47
2017-12-03T02:26:13.807Z,37.10
2017-12-03T02:32:17.355Z,38.30
2017-12-03T02:38:20.962Z,33.63
2017-12-03T02:44:24.847Z,33.40
2017-12-03T02:50:28.487Z,31.50
2017-12-03T02:56:31.993Z,28.40
2017-12-03T03:02:35.524Z,31.57
2017-12-03T03:08:39.091Z,31.30
2017-12-03T03:14:42.896Z,33.20
2017-12-03T03:20:46.420Z,29.70
2017-12-03T03:26:50.592Z,30.60
2017-12-03T03:32:54.251Z,31.07
2017-12-03T03:38:57.801Z,33.23
2017-12-03T03:45:01.354Z,26.77
2017-12-03T03:51:04.919Z,37.47
2017-12-03T03:57:09.227Z,40.03
2017-12-03T04:03:13.019Z,34.47
2017-12-03T04:09:16.646Z,38.20
2017-12-03T04:15:20.189Z,34.10
2017-12-03T04:21:24.092Z,35.57
2017-12-03T04:27:27.632Z,37.23
2017-12-03T04:33:31.321Z,36.63
2017-12-03T04:39:34.902Z,38.43
2017-12-03T04:45:39.259Z,33.80
2017-12-03T04:51:44.367Z,34.20
2017-12-03T04:57:48.773Z,39.00
2017-12-03T05:03:52.466Z,39.50
2017-12-03T05:09:56.521Z,32.93
2017-12-03T05:16:00.140Z,27.87
2017-12-03T05:22:03.706Z,28.67
2017-12-03T05:28:07.234Z,31.87
2017-12-03T05:34:11.519Z,30.43
2017-12-03T05:40:15.789Z,32.70
2017-12-03T05:46:20.109Z,33.87
2017-12-03T05:52:24.810Z,26.93
2017-12-03T05:58:29.240Z,27.10
2017-12-03T06:04:32.768Z,31.90
2017-12-03T06:10:37.116Z,28.00
2017-12-03T06:16:40.678Z,31.77
2017-12-03T06:22:44.308Z,38.90
2017-12-03T06:28:47.835Z,29.47
2017-12-03T06:34:52.294Z,31.03
2017-12-03T06:40:56.799Z,27.40
2017-12-03T06:47:00.439Z,24.23
2017-12-03T06:53:03.927Z,28.87
2017-12-03T06:59:07.497Z,22.10
2017-12-03T07:05:11.024Z,29.90
2017-12-03T07:11:14.551Z,26.10
2017-12-03T07:17:18.097Z,26.70
2017-12-03T07:23:22.704Z,27.23
2017-12-03T07:29:26.373Z,26.10
2017-12-03T07:35:29.891Z,29.67
2017-12-03T07:41:34.302Z,30.57
2017-12-03T07:47:37.849Z,25.50
2017-12-03T07:53:41.379Z,28.27
2017-12-03T07:59:45.703Z,29.80
2017-12-03T08:05:49.438Z,31.83
2017-12-03T08:11:53.738Z,28.97
2017-12-03T08:17:57.715Z,27.90
2017-12-03T08:24:01.474Z,25.87
2017-12-03T08:30:05.957Z,26.70
2017-12-03T08:36:09.492Z,23.90
2017-12-03T08:42:13.047Z,26.70
2017-12-03T08:48:16.821Z,30.03
2017-12-03T08:54:20.384Z,30.70
2017-12-03T09:00:24.295Z,23.83
2017-12-03T09:06:27.899Z,24.40
2017-12-03T09:12:33.142Z,29.73
2017-12-03T09:18:36.672Z,21.93
2017-12-03T09:24:40.186Z,23.67
2017-12-03T09:30:43.721Z,25.27
2017-12-03T09:36:47.259Z,22.33
2017-12-03T09:42:50.790Z,30.47
2017-12-03T09:48:55.118Z,33.50
2017-12-03T09:54:58.623Z,21.90
2017-12-03T10:01:02.893Z,24.30
2017-12-03T10:07:07.231Z,22.60
2017-12-03T10:13:11.002Z,23.00
2017-12-03T10:19:14.503Z,19.47
2017-12-03T10:25:18.033Z,21.33
2017-12-03T10:31:22.347Z,25.77
2017-12-03T10:37:26.960Z,23.80
2017-12-03T10:43:30.818Z,22.03
2017-12-03T10:49:34.406Z,22.43
2017-12-03T10:55:38.724Z,23.07
2017-12-03T11:01:42.474Z,20.33
2017-12-03T11:07:46.007Z,38.33
2017-12-03T11:13:49.776Z,20.10
2017-12-03T11:19:53.452Z,17.40
2017-12-03T11:25:57.032Z,20.73
2017-12-03T11:32:00.632Z,19.17
2017-12-03T11:38:04.164Z,18.90
2017-12-03T11:44:07.731Z,24.00
2017-12-03T11:50:12.142Z,21.43
2017-12-03T11:56:15.670Z,20.23
2017-12-03T12:02:20.009Z,18.53
2017-12-03T12:08:23.863Z,18.47
2017-12-03T12:14:27.402Z,17.57
2017-12-03T12:20:30.935Z,21.80
2017-12-03T12:26:34.596Z,18.77
2017-12-03T12:32:38.156Z,16.43
2017-12-03T12:38:41.751Z,15.90
2017-12-03T12:44:45.316Z,17.10
2017-12-03T12:50:48.911Z,14.63
2017-12-03T12:56:52.423Z,17.77
2017-12-03T13:02:56.556Z,14.20
2017-12-03T13:09:00.098Z,17.37
2017-12-03T13:15:03.631Z,17.60
2017-12-03T13:21:08.550Z,20.40
2017-12-03T13:27:12.191Z,16.87
2017-12-03T13:33:15.727Z,14.33
2017-12-03T13:39:20.647Z,16.17
2017-12-03T13:45:24.312Z,19.43
2017-12-03T13:51:27.978Z,16.33
2017-12-03T13:57:31.528Z,16.93
2017-12-03T14:03:35.058Z,15.70
2017-12-03T14:09:38.633Z,19.00
2017-12-03T14:15:42.176Z,17.50
2017-12-03T14:21:45.712Z,19.00
2017-12-03T14:27:49.243Z,17.10
2017-12-03T14:33:53.545Z,18.23
2017-12-03T14:39:57.136Z,18.23
2017-12-03T14:46:00.992Z,19.60
2017-12-03T14:52:04.573Z,23.50
2017-12-03T14:58:08.135Z,17.67
2017-12-03T15:04:11.667Z,21.47
2017-12-03T15:10:15.204Z,19.90
2017-12-03T15:16:18.707Z,17.90
2017-12-03T15:22:23.020Z,17.93
2017-12-03T15:28:26.849Z,16.87
2017-12-03T15:34:30.376Z,20.43
2017-12-03T15:40:33.990Z,19.53
2017-12-03T15:46:37.525Z,18.83
2017-12-03T15:52:41.953Z,19.27
2017-12-03T15:58:45.578Z,19.67
2017-12-03T16:04:49.092Z,21.33
2017-12-03T16:10:52.654Z,17.00
2017-12-03T16:16:56.358Z,20.30
2017-12-03T16:23:00.614Z,18.13
2017-12-03T16:29:04.127Z,16.27
2017-12-03T16:35:07.729Z,20.67
2017-12-03T16:41:11.311Z,19.50
2017-12-03T16:47:14.959Z,18.03
2017-12-03T16:53:19.279Z,19.10
2017-12-03T16:59:23.941Z,18.23
2017-12-03T17:05:27.489Z,17.87
2017-12-03T17:11:31.038Z,19.43
2017-12-03T17:17:34.633Z,17.83
2017-12-03T17:23:38.358Z,17.63
2017-12-03T17:29:42.109Z,19.30
2017-12-03T17:35:45.638Z,19.73
2017-12-03T17:41:49.283Z,18.17
2017-12-03T17:47:53.299Z,18.83
2017-12-03T17:53:56.884Z,19.07
2017-12-03T18:00:00.465Z,17.80
2017-12-03T18:06:04.046Z,21.07
2017-12-03T18:12:07.594Z,19.37
2017-12-03T18:18:11.554Z,18.97
2017-12-03T18:24:15.158Z,17.53
2017-12-03T18:30:18.666Z,18.07
2017-12-03T18:36:22.308Z,18.70
2017-12-03T18:42:26.667Z,18.20
2017-12-03T18:48:30.932Z,17.13
2017-12-03T18:54:35.247Z,19.00
2017-12-03T19:00:38.755Z,17.07
2017-12-03T19:06:42.309Z,17.70
2017-12-03T19:12:45.867Z,17.80
2017-12-03T19:18:50.369Z,16.80
2017-12-03T19:24:53.947Z,15.50
2017-12-03T19:30:57.485Z,16.53
2017-12-03T19:37:01.032Z,16.77
2017-12-03T19:43:04.577Z,24.33
2017-12-03T19:49:08.912Z,22.53
2017-12-03T19:55:12.554Z,17.00
2017-12-03T20:01:16.080Z,15.40
2017-12-03T20:07:19.622Z,17.80
2017-12-03T20:13:24.642Z,14.73
2017-12-03T20:19:28.191Z,18.53
2017-12-03T20:25:31.711Z,20.20
2017-12-03T20:31:36.040Z,16.37
2017-12-03T20:37:39.777Z,21.23
2017-12-03T20:56:44.087Z,26.50
2017-12-03T21:02:48.731Z,26.97
2017-12-03T21:08:52.560Z,28.33
2017-12-03T21:14:56.214Z,29.57
2017-12-03T21:20:59.784Z,25.53
2017-12-03T21:27:03.585Z,26.00
2017-12-03T21:33:08.648Z,26.83
2017-12-03T21:39:12.196Z,25.80
2017-12-03T21:45:15.733Z,31.30
2017-12-03T21:51:19.333Z,31.27
2017-12-03T21:57:22.996Z,32.33
2017-12-03T22:03:27.313Z,24.40
2017-12-03T22:09:30.886Z,27.70
2017-12-03T22:15:34.563Z,23.10
2017-12-03T22:21:38.198Z,21.57
2017-12-03T22:27:41.830Z,24.60
2017-12-03T22:33:45.415Z,23.60
2017-12-03T22:39:48.987Z,22.20
2017-12-03T22:45:52.559Z,18.50
2017-12-03T22:51:56.135Z,20.20
2017-12-03T22:58:00.434Z,32.73
2017-12-03T23:04:04.022Z,23.90
2017-12-03T23:10:07.546Z,25.37
2017-12-03T23:16:11.106Z,30.13
2017-12-03T23:22:14.662Z,27.20
2017-12-03T23:28:18.698Z,20.43
2017-12-03T23:34:23.441Z,27.33
2017-12-03T23:40:26.954Z,28.50
2017-12-03T23:46:30.492Z,23.47
2017-12-03T23:52:34.759Z,24.20
2017-12-03T23:58:39.083Z,19.20
